aviador You're here:

OIZI Decoded Metar

IRAN SHAHR in IRAN
Report Time2018-06-25 06:00:00
UTC Time2018-06-25 06:15:43
Flight Rules mvfr MVFR
Wind190° at 06 kt
W.Decomp.*RWY 17: 5.7 kt HW 2.0 kt RCW
W.Rank190° ranks 22
Current wind is above 190° avg. (4.8)
Visibility5000 m
Phenomena:Haze
Clouds:N/A
Expected CloudBase > 10,000 ft AGL from Temp-Dew spread
CeilingNone
Temp38°C (ISA +27)
Dew Point13°C (22% RH)
Heat Index37.1°C
AAT36.6°C
QNH1003 hPa
Density Alt5,489 ft
Elevation1,939 ft
Report Wrong Elevation
Raw Report
METAR OIZI 250600Z 19006KT 5000 HZ NSC 38/13 Q1003=

Extra information for OIZI:More info

Metar Taf Metar & Taf Last 4 Metars F.Rules Stats Wind Profile Meteogram Temp Stats Airport Information Weather charts Add Link Nearby VenuesMetar ALERT Operation Metar Decoded Social comments